sensor_id;sensor_type;location;lat;lon;timestamp;temperature;humidity
57030;DHT22;42920;45.306;20.448;2023-12-22T00:00:12;154.40;2252.80
57030;DHT22;42920;45.306;20.448;2023-12-22T00:02:37;154.40;2252.80
57030;DHT22;42920;45.306;20.448;2023-12-22T00:05:03;154.40;2252.80
57030;DHT22;42920;45.306;20.448;2023-12-22T00:07:29;154.40;2252.80
57030;DHT22;42920;45.306;20.448;2023-12-22T00:09:54;154.30;2252.80
57030;DHT22;42920;45.306;20.448;2023-12-22T00:12:20;154.40;2252.80
57030;DHT22;42920;45.306;20.448;2023-12-22T00:14:45;154.30;2252.80
57030;DHT22;42920;45.306;20.448;2023-12-22T00:17:11;154.30;2252.80
57030;DHT22;42920;45.306;20.448;2023-12-22T00:19:37;154.20;2252.80
57030;DHT22;42920;45.306;20.448;2023-12-22T00:22:02;154.20;2252.80
57030;DHT22;42920;45.306;20.448;2023-12-22T00:24:29;154.30;2252.80
57030;DHT22;42920;45.306;20.448;2023-12-22T00:26:54;154.30;2252.80
57030;DHT22;42920;45.306;20.448;2023-12-22T00:29:20;154.30;2252.80
57030;DHT22;42920;45.306;20.448;2023-12-22T00:31:45;154.30;2252.80
57030;DHT22;42920;45.306;20.448;2023-12-22T00:34:11;154.20;2252.80
57030;DHT22;42920;45.306;20.448;2023-12-22T00:36:36;154.20;2252.80
57030;DHT22;42920;45.306;20.448;2023-12-22T00:39:02;154.20;2252.80
57030;DHT22;42920;45.306;20.448;2023-12-22T00:41:28;154.10;2252.80
57030;DHT22;42920;45.306;20.448;2023-12-22T00:43:54;154.10;2252.80
57030;DHT22;42920;45.306;20.448;2023-12-22T00:46:19;154.10;2252.80
57030;DHT22;42920;45.306;20.448;2023-12-22T00:48:45;154.10;2252.80
57030;DHT22;42920;45.306;20.448;2023-12-22T00:51:11;154.10;2252.80
57030;DHT22;42920;45.306;20.448;2023-12-22T00:53:37;154.10;2252.80
57030;DHT22;42920;45.306;20.448;2023-12-22T00:56:02;154.10;2252.80
57030;DHT22;42920;45.306;20.448;2023-12-22T00:58:29;154.10;2252.80
57030;DHT22;42920;45.306;20.448;2023-12-22T01:00:55;154.10;2252.80
57030;DHT22;42920;45.306;20.448;2023-12-22T01:03:20;154.20;2252.80
57030;DHT22;42920;45.306;20.448;2023-12-22T01:05:46;154.10;2252.80
57030;DHT22;42920;45.306;20.448;2023-12-22T01:08:11;154.20;2252.80
57030;DHT22;42920;45.306;20.448;2023-12-22T01:10:37;154.10;2252.80
57030;DHT22;42920;45.306;20.448;2023-12-22T01:13:03;154.00;2252.80
57030;DHT22;42920;45.306;20.448;2023-12-22T01:15:28;154.00;2252.80
57030;DHT22;42920;45.306;20.448;2023-12-22T01:17:54;153.90;2252.80
57030;DHT22;42920;45.306;20.448;2023-12-22T01:20:20;153.90;2252.80
57030;DHT22;42920;45.306;20.448;2023-12-22T01:22:45;153.90;2252.80
57030;DHT22;42920;45.306;20.448;2023-12-22T01:25:11;154.00;2252.80
57030;DHT22;42920;45.306;20.448;2023-12-22T01:27:36;154.00;2252.80
57030;DHT22;42920;45.306;20.448;2023-12-22T01:30:02;154.10;2252.80
57030;DHT22;42920;45.306;20.448;2023-12-22T01:32:28;154.00;2252.80
57030;DHT22;42920;45.306;20.448;2023-12-22T01:34:59;154.30;2252.80
57030;DHT22;42920;45.306;20.448;2023-12-22T01:37:29;154.20;2252.80
57030;DHT22;42920;45.306;20.448;2023-12-22T01:39:55;154.10;2252.80
57030;DHT22;42920;45.306;20.448;2023-12-22T01:42:20;154.10;2252.80
57030;DHT22;42920;45.306;20.448;2023-12-22T01:44:46;154.00;2252.80
57030;DHT22;42920;45.306;20.448;2023-12-22T01:47:12;154.10;2252.80
57030;DHT22;42920;45.306;20.448;2023-12-22T01:49:37;154.10;2252.80
57030;DHT22;42920;45.306;20.448;2023-12-22T01:52:03;154.10;2252.80
57030;DHT22;42920;45.306;20.448;2023-12-22T01:54:29;154.30;2252.80
57030;DHT22;42920;45.306;20.448;2023-12-22T01:56:55;154.40;2252.80
57030;DHT22;42920;45.306;20.448;2023-12-22T01:59:20;154.50;2252.80
57030;DHT22;42920;45.306;20.448;2023-12-22T02:01:46;179.20;2252.80
57030;DHT22;42920;45.306;20.448;2023-12-22T02:04:12;179.20;2252.80
57030;DHT22;42920;45.306;20.448;2023-12-22T02:06:39;179.30;2252.80
57030;DHT22;42920;45.306;20.448;2023-12-22T02:09:05;179.40;2252.80
57030;DHT22;42920;45.306;20.448;2023-12-22T02:11:30;179.50;2252.80
57030;DHT22;42920;45.306;20.448;2023-12-22T02:22:05;179.20;2252.80
57030;DHT22;42920;45.306;20.448;2023-12-22T02:24:31;179.20;2252.80
57030;DHT22;42920;45.306;20.448;2023-12-22T02:26:59;179.20;2252.80
57030;DHT22;42920;45.306;20.448;2023-12-22T02:29:28;179.30;2252.80
57030;DHT22;42920;45.306;20.448;2023-12-22T02:31:55;179.30;2252.80
57030;DHT22;42920;45.306;20.448;2023-12-22T02:34:21;179.40;2252.80
57030;DHT22;42920;45.306;20.448;2023-12-22T02:36:48;179.40;2252.80
57030;DHT22;42920;45.306;20.448;2023-12-22T02:39:14;179.50;2252.80
57030;DHT22;42920;45.306;20.448;2023-12-22T02:41:40;179.60;2252.80
57030;DHT22;42920;45.306;20.448;2023-12-22T02:44:06;179.70;2252.80
57030;DHT22;42920;45.306;20.448;2023-12-22T02:46:32;179.70;2252.80
57030;DHT22;42920;45.306;20.448;2023-12-22T02:48:57;179.90;2252.80
57030;DHT22;42920;45.306;20.448;2023-12-22T02:51:23;179.90;2252.80
57030;DHT22;42920;45.306;20.448;2023-12-22T02:53:48;179.90;2252.80
57030;DHT22;42920;45.306;20.448;2023-12-22T02:56:14;180.00;2252.80
57030;DHT22;42920;45.306;20.448;2023-12-22T02:58:39;180.10;2252.80
57030;DHT22;42920;45.306;20.448;2023-12-22T03:01:05;180.10;2252.80
57030;DHT22;42920;45.306;20.448;2023-12-22T03:03:31;180.10;2252.80
57030;DHT22;42920;45.306;20.448;2023-12-22T03:05:56;204.80;2252.80
57030;DHT22;42920;45.306;20.448;2023-12-22T03:08:22;204.80;2252.80
57030;DHT22;42920;45.306;20.448;2023-12-22T03:10:47;180.10;2252.80
57030;DHT22;42920;45.306;20.448;2023-12-22T03:13:13;204.90;2252.80
57030;DHT22;42920;45.306;20.448;2023-12-22T03:15:39;205.10;2252.80
57030;DHT22;42920;45.306;20.448;2023-12-22T03:18:04;205.30;2252.80
57030;DHT22;42920;45.306;20.448;2023-12-22T03:20:30;205.30;2252.80
57030;DHT22;42920;45.306;20.448;2023-12-22T03:22:55;205.30;2252.80
57030;DHT22;42920;45.306;20.448;2023-12-22T03:25:21;205.30;2252.80
57030;DHT22;42920;45.306;20.448;2023-12-22T03:27:47;205.40;2252.80
57030;DHT22;42920;45.306;20.448;2023-12-22T03:30:12;205.50;2252.80
57030;DHT22;42920;45.306;20.448;2023-12-22T03:32:38;205.50;2252.80
57030;DHT22;42920;45.306;20.448;2023-12-22T03:35:04;205.60;2252.80
57030;DHT22;42920;45.306;20.448;2023-12-22T03:37:29;205.70;2252.80
57030;DHT22;42920;45.306;20.448;2023-12-22T03:39:55;205.70;2252.80
57030;DHT22;42920;45.306;20.448;2023-12-22T03:42:20;205.70;2252.80
57030;DHT22;42920;45.306;20.448;2023-12-22T03:44:46;205.70;2252.80
57030;DHT22;42920;45.306;20.448;2023-12-22T03:47:12;205.70;2252.80
57030;DHT22;42920;45.306;20.448;2023-12-22T03:49:37;205.70;2252.80
57030;DHT22;42920;45.306;20.448;2023-12-22T03:52:03;205.70;2252.80
57030;DHT22;42920;45.306;20.448;2023-12-22T03:54:28;205.70;2252.80
57030;DHT22;42920;45.306;20.448;2023-12-22T03:56:54;205.60;2252.80
57030;DHT22;42920;45.306;20.448;2023-12-22T03:59:19;205.60;2252.80
57030;DHT22;42920;45.306;20.448;2023-12-22T04:01:50;205.60;2252.80
57030;DHT22;42920;45.306;20.448;2023-12-22T04:04:15;205.60;2252.80
57030;DHT22;42920;45.306;20.448;2023-12-22T04:06:41;205.60;2252.80
57030;DHT22;42920;45.306;20.448;2023-12-22T04:09:06;205.60;2252.80
57030;DHT22;42920;45.306;20.448;2023-12-22T04:11:32;205.60;2252.80
57030;DHT22;42920;45.306;20.448;2023-12-22T04:14:00;205.60;2252.80
57030;DHT22;42920;45.306;20.448;2023-12-22T04:16:25;205.60;2252.80
57030;DHT22;42920;45.306;20.448;2023-12-22T04:18:51;205.60;2252.80
57030;DHT22;42920;45.306;20.448;2023-12-22T04:21:16;205.60;2252.80
57030;DHT22;42920;45.306;20.448;2023-12-22T04:23:42;205.60;2252.80
57030;DHT22;42920;45.306;20.448;2023-12-22T04:26:08;205.60;2252.80
57030;DHT22;42920;45.306;20.448;2023-12-22T04:28:33;205.60;2252.80
57030;DHT22;42920;45.306;20.448;2023-12-22T04:30:59;205.50;2252.80
57030;DHT22;42920;45.306;20.448;2023-12-22T04:33:24;205.50;2252.80
57030;DHT22;42920;45.306;20.448;2023-12-22T04:35:50;205.50;2252.80
57030;DHT22;42920;45.306;20.448;2023-12-22T04:38:16;205.40;2252.80
57030;DHT22;42920;45.306;20.448;2023-12-22T04:40:41;205.40;2252.80
57030;DHT22;42920;45.306;20.448;2023-12-22T04:43:07;205.40;2252.80
57030;DHT22;42920;45.306;20.448;2023-12-22T04:45:32;205.30;2252.80
57030;DHT22;42920;45.306;20.448;2023-12-22T04:47:58;205.30;2252.80
57030;DHT22;42920;45.306;20.448;2023-12-22T04:50:23;205.30;2252.80
57030;DHT22;42920;45.306;20.448;2023-12-22T04:52:49;205.20;2150.40
57030;DHT22;42920;45.306;20.448;2023-12-22T04:55:15;205.20;2252.80
57030;DHT22;42920;45.306;20.448;2023-12-22T04:57:40;205.20;2252.80
57030;DHT22;42920;45.306;20.448;2023-12-22T05:00:06;205.20;2252.80
57030;DHT22;42920;45.306;20.448;2023-12-22T05:02:32;205.10;2252.80
57030;DHT22;42920;45.306;20.448;2023-12-22T05:04:57;205.10;2252.80
57030;DHT22;42920;45.306;20.448;2023-12-22T05:07:23;205.10;2252.80
57030;DHT22;42920;45.306;20.448;2023-12-22T05:09:49;205.10;2252.80
57030;DHT22;42920;45.306;20.448;2023-12-22T05:12:14;205.10;2201.60
57030;DHT22;42920;45.306;20.448;2023-12-22T05:14:40;205.10;2252.80
57030;DHT22;42920;45.306;20.448;2023-12-22T05:17:05;205.00;2252.80
57030;DHT22;42920;45.306;20.448;2023-12-22T05:19:31;205.00;2252.80
57030;DHT22;42920;45.306;20.448;2023-12-22T05:21:57;205.00;2252.80
57030;DHT22;42920;45.306;20.448;2023-12-22T05:24:22;204.90;2252.80
57030;DHT22;42920;45.306;20.448;2023-12-22T05:26:48;205.00;2252.80
57030;DHT22;42920;45.306;20.448;2023-12-22T05:29:13;204.90;2252.80
57030;DHT22;42920;45.306;20.448;2023-12-22T05:31:39;205.00;2252.80
57030;DHT22;42920;45.306;20.448;2023-12-22T05:34:05;205.00;2252.80
57030;DHT22;42920;45.306;20.448;2023-12-22T05:36:31;205.00;2252.80
57030;DHT22;42920;45.306;20.448;2023-12-22T05:38:56;204.90;2176.00
57030;DHT22;42920;45.306;20.448;2023-12-22T05:41:22;204.90;2252.80
57030;DHT22;42920;45.306;20.448;2023-12-22T05:43:48;204.90;2252.80
57030;DHT22;42920;45.306;20.448;2023-12-22T05:46:13;204.90;2252.80
57030;DHT22;42920;45.306;20.448;2023-12-22T05:48:39;204.90;2252.80
57030;DHT22;42920;45.306;20.448;2023-12-22T05:51:04;204.90;2252.80
57030;DHT22;42920;45.306;20.448;2023-12-22T05:53:33;204.90;2252.80
57030;DHT22;42920;45.306;20.448;2023-12-22T05:55:58;204.90;2252.80
57030;DHT22;42920;45.306;20.448;2023-12-22T05:58:24;204.90;2176.00
57030;DHT22;42920;45.306;20.448;2023-12-22T06:00:49;204.90;1868.80
57030;DHT22;42920;45.306;20.448;2023-12-22T06:03:15;204.90;2252.80
57030;DHT22;42920;45.306;20.448;2023-12-22T06:05:40;204.90;2252.80
57030;DHT22;42920;45.306;20.448;2023-12-22T06:08:06;204.90;2252.80
57030;DHT22;42920;45.306;20.448;2023-12-22T06:10:32;205.00;2252.80
57030;DHT22;42920;45.306;20.448;2023-12-22T06:12:57;205.00;2252.80
57030;DHT22;42920;45.306;20.448;2023-12-22T06:15:23;205.00;2252.80
57030;DHT22;42920;45.306;20.448;2023-12-22T06:17:49;205.00;2252.80
57030;DHT22;42920;45.306;20.448;2023-12-22T06:20:14;205.10;2252.80
57030;DHT22;42920;45.306;20.448;2023-12-22T06:22:40;205.10;2252.80
57030;DHT22;42920;45.306;20.448;2023-12-22T06:25:05;205.20;2252.80
57030;DHT22;42920;45.306;20.448;2023-12-22T06:27:33;205.20;2252.80
57030;DHT22;42920;45.306;20.448;2023-12-22T06:29:58;205.20;2252.80
57030;DHT22;42920;45.306;20.448;2023-12-22T06:32:24;205.30;2252.80
57030;DHT22;42920;45.306;20.448;2023-12-22T06:34:50;205.30;2252.80
57030;DHT22;42920;45.306;20.448;2023-12-22T06:37:15;205.30;2252.80
57030;DHT22;42920;45.306;20.448;2023-12-22T06:39:42;205.30;2252.80
57030;DHT22;42920;45.306;20.448;2023-12-22T06:42:07;205.30;2252.80
57030;DHT22;42920;45.306;20.448;2023-12-22T06:44:42;205.30;2252.80
57030;DHT22;42920;45.306;20.448;2023-12-22T06:47:09;205.30;2252.80
57030;DHT22;42920;45.306;20.448;2023-12-22T06:49:34;205.30;2252.80
57030;DHT22;42920;45.306;20.448;2023-12-22T06:52:00;205.40;2252.80
57030;DHT22;42920;45.306;20.448;2023-12-22T06:54:26;205.30;2252.80
57030;DHT22;42920;45.306;20.448;2023-12-22T06:56:52;205.30;2252.80
57030;DHT22;42920;45.306;20.448;2023-12-22T06:59:18;205.30;2252.80
57030;DHT22;42920;45.306;20.448;2023-12-22T07:01:43;205.30;2252.80
57030;DHT22;42920;45.306;20.448;2023-12-22T07:04:09;205.40;2252.80
57030;DHT22;42920;45.306;20.448;2023-12-22T07:06:34;205.30;2252.80
57030;DHT22;42920;45.306;20.448;2023-12-22T07:11:42;205.40;2252.80
57030;DHT22;42920;45.306;20.448;2023-12-22T07:14:08;205.40;2252.80
57030;DHT22;42920;45.306;20.448;2023-12-22T07:16:35;205.40;2252.80
57030;DHT22;42920;45.306;20.448;2023-12-22T07:19:00;205.40;2252.80
57030;DHT22;42920;45.306;20.448;2023-12-22T07:21:26;205.50;2252.80
57030;DHT22;42920;45.306;20.448;2023-12-22T07:23:52;205.40;2252.80
57030;DHT22;42920;45.306;20.448;2023-12-22T07:26:17;205.40;2252.80
57030;DHT22;42920;45.306;20.448;2023-12-22T07:28:43;205.40;2252.80
57030;DHT22;42920;45.306;20.448;2023-12-22T07:31:08;205.40;2252.80
57030;DHT22;42920;45.306;20.448;2023-12-22T07:33:34;205.30;2252.80
57030;DHT22;42920;45.306;20.448;2023-12-22T07:36:00;205.30;2252.80
57030;DHT22;42920;45.306;20.448;2023-12-22T07:38:25;205.20;2252.80
57030;DHT22;42920;45.306;20.448;2023-12-22T07:40:51;205.20;2252.80
57030;DHT22;42920;45.306;20.448;2023-12-22T07:43:17;205.30;2252.80
57030;DHT22;42920;45.306;20.448;2023-12-22T07:45:42;205.30;2252.80
57030;DHT22;42920;45.306;20.448;2023-12-22T07:48:08;205.30;2252.80
57030;DHT22;42920;45.306;20.448;2023-12-22T07:50:33;205.30;2252.80
57030;DHT22;42920;45.306;20.448;2023-12-22T07:52:59;205.30;2252.80
57030;DHT22;42920;45.306;20.448;2023-12-22T07:55:25;205.40;2252.80
57030;DHT22;42920;45.306;20.448;2023-12-22T07:57:50;205.50;2252.80
57030;DHT22;42920;45.306;20.448;2023-12-22T08:00:16;205.60;2252.80
57030;DHT22;42920;45.306;20.448;2023-12-22T08:02:42;205.60;2252.80
57030;DHT22;42920;45.306;20.448;2023-12-22T08:05:08;205.70;2252.80
57030;DHT22;42920;45.306;20.448;2023-12-22T08:07:34;230.50;2252.80
57030;DHT22;42920;45.306;20.448;2023-12-22T08:10:00;230.50;2252.80
57030;DHT22;42920;45.306;20.448;2023-12-22T08:12:27;230.60;2252.80
57030;DHT22;42920;45.306;20.448;2023-12-22T08:14:53;230.60;2252.80
57030;DHT22;42920;45.306;20.448;2023-12-22T08:17:19;230.70;2252.80
57030;DHT22;42920;45.306;20.448;2023-12-22T08:19:44;230.70;2252.80
57030;DHT22;42920;45.306;20.448;2023-12-22T08:22:10;230.70;2252.80
57030;DHT22;42920;45.306;20.448;2023-12-22T08:24:36;230.70;2252.80
57030;DHT22;42920;45.306;20.448;2023-12-22T08:27:01;230.70;2252.80
57030;DHT22;42920;45.306;20.448;2023-12-22T08:29:27;230.70;2252.80
57030;DHT22;42920;45.306;20.448;2023-12-22T08:31:53;230.80;2252.80
57030;DHT22;42920;45.306;20.448;2023-12-22T08:34:19;230.80;2252.80
57030;DHT22;42920;45.306;20.448;2023-12-22T08:36:44;230.90;2252.80
57030;DHT22;42920;45.306;20.448;2023-12-22T08:53:47;230.70;2252.80
57030;DHT22;42920;45.306;20.448;2023-12-22T08:56:13;256.00;2252.80
57030;DHT22;42920;45.306;20.448;2023-12-22T08:58:40;256.00;2252.80
57030;DHT22;42920;45.306;20.448;2023-12-22T09:01:06;231.20;2252.80
57030;DHT22;42920;45.306;20.448;2023-12-22T09:03:33;231.00;2252.80
57030;DHT22;42920;45.306;20.448;2023-12-22T09:06:01;231.10;2252.80
57030;DHT22;42920;45.306;20.448;2023-12-22T09:08:27;231.10;2252.80
57030;DHT22;42920;45.306;20.448;2023-12-22T09:10:53;231.10;2252.80
57030;DHT22;42920;45.306;20.448;2023-12-22T09:13:19;231.20;2252.80
57030;DHT22;42920;45.306;20.448;2023-12-22T09:15:46;231.10;2252.80
57030;DHT22;42920;45.306;20.448;2023-12-22T09:18:13;231.10;2252.80
57030;DHT22;42920;45.306;20.448;2023-12-22T09:20:39;231.10;2252.80
57030;DHT22;42920;45.306;20.448;2023-12-22T09:23:06;231.10;2252.80
57030;DHT22;42920;45.306;20.448;2023-12-22T09:25:33;231.00;2252.80
57030;DHT22;42920;45.306;20.448;2023-12-22T09:27:59;231.10;2252.80
57030;DHT22;42920;45.306;20.448;2023-12-22T09:30:24;231.10;2252.80
57030;DHT22;42920;45.306;20.448;2023-12-22T09:32:50;231.20;2252.80
57030;DHT22;42920;45.306;20.448;2023-12-22T09:35:16;231.10;2252.80
57030;DHT22;42920;45.306;20.448;2023-12-22T09:37:43;231.10;2252.80
57030;DHT22;42920;45.306;20.448;2023-12-22T09:40:09;231.00;2252.80
57030;DHT22;42920;45.306;20.448;2023-12-22T09:42:39;231.00;2252.80
57030;DHT22;42920;45.306;20.448;2023-12-22T09:45:08;231.10;2252.80
57030;DHT22;42920;45.306;20.448;2023-12-22T09:47:35;231.10;2252.80
57030;DHT22;42920;45.306;20.448;2023-12-22T09:50:01;231.30;2252.80
57030;DHT22;42920;45.306;20.448;2023-12-22T09:52:28;231.30;2252.80
57030;DHT22;42920;45.306;20.448;2023-12-22T09:54:55;231.30;2252.80
57030;DHT22;42920;45.306;20.448;2023-12-22T09:57:24;256.00;2252.80
57030;DHT22;42920;45.306;20.448;2023-12-22T09:59:51;256.60;2252.80
57030;DHT22;42920;45.306;20.448;2023-12-22T10:02:17;256.40;2252.80
57030;DHT22;42920;45.306;20.448;2023-12-22T10:04:44;256.30;2252.80
57030;DHT22;42920;45.306;20.448;2023-12-22T10:07:11;256.20;2252.80
57030;DHT22;42920;45.306;20.448;2023-12-22T10:09:41;256.10;2252.80
57030;DHT22;42920;45.306;20.448;2023-12-22T10:12:09;256.00;2252.80
57030;DHT22;42920;45.306;20.448;2023-12-22T10:14:37;256.20;2252.80
57030;DHT22;42920;45.306;20.448;2023-12-22T10:17:07;281.70;2278.40
57030;DHT22;42920;45.306;20.448;2023-12-22T10:19:33;282.40;2278.40
57030;DHT22;42920;45.306;20.448;2023-12-22T10:21:58;282.20;2278.40
57030;DHT22;42920;45.306;20.448;2023-12-22T10:27:04;282.00;2278.40
57030;DHT22;42920;45.306;20.448;2023-12-22T10:29:29;282.00;2278.40
57030;DHT22;42920;45.306;20.448;2023-12-22T10:31:55;281.80;2278.40
57030;DHT22;42920;45.306;20.448;2023-12-22T10:34:21;281.70;2278.40
57030;DHT22;42920;45.306;20.448;2023-12-22T10:36:46;282.50;2278.40
57030;DHT22;42920;45.306;20.448;2023-12-22T10:39:12;307.60;2304.00
57030;DHT22;42920;45.306;20.448;2023-12-22T10:41:38;307.80;2304.00
57030;DHT22;42920;45.306;20.448;2023-12-22T10:44:04;332.80;2329.60
57030;DHT22;42920;45.306;20.448;2023-12-22T10:46:30;333.10;2329.60
57030;DHT22;42920;45.306;20.448;2023-12-22T10:48:58;333.20;2329.60
57030;DHT22;42920;45.306;20.448;2023-12-22T10:51:24;333.30;2329.60
57030;DHT22;42920;45.306;20.448;2023-12-22T10:53:51;333.30;2329.60
57030;DHT22;42920;45.306;20.448;2023-12-22T10:56:17;333.40;2329.60
57030;DHT22;42920;45.306;20.448;2023-12-22T10:58:42;333.60;2329.60
57030;DHT22;42920;45.306;20.448;2023-12-22T11:01:12;333.70;2329.60
57030;DHT22;42920;45.306;20.448;2023-12-22T11:03:43;333.70;2329.60
57030;DHT22;42920;45.306;20.448;2023-12-22T11:06:10;358.40;2329.60
57030;DHT22;42920;45.306;20.448;2023-12-22T11:08:38;358.40;2329.60
57030;DHT22;42920;45.306;20.448;2023-12-22T11:11:13;358.40;2201.60
57030;DHT22;42920;45.306;20.448;2023-12-22T11:13:43;333.70;2227.20
57030;DHT22;42920;45.306;20.448;2023-12-22T11:16:09;333.70;2201.60
57030;DHT22;42920;45.306;20.448;2023-12-22T11:18:37;333.60;2176.00
57030;DHT22;42920;45.306;20.448;2023-12-22T11:21:06;333.50;2099.20
57030;DHT22;42920;45.306;20.448;2023-12-22T11:23:32;333.70;2099.20
57030;DHT22;42920;45.306;20.448;2023-12-22T11:25:59;333.60;2022.40
57030;DHT22;42920;45.306;20.448;2023-12-22T11:28:26;333.20;1996.80
57030;DHT22;42920;45.306;20.448;2023-12-22T11:30:52;333.40;1945.60
57030;DHT22;42920;45.306;20.448;2023-12-22T11:33:20;333.30;1894.40
57030;DHT22;42920;45.306;20.448;2023-12-22T11:35:46;333.00;1868.80
57030;DHT22;42920;45.306;20.448;2023-12-22T11:38:13;332.90;1843.20
57030;DHT22;42920;45.306;20.448;2023-12-22T11:40:39;308.10;1868.80
57030;DHT22;42920;45.306;20.448;2023-12-22T11:43:06;332.90;1894.40
57030;DHT22;42920;45.306;20.448;2023-12-22T11:45:32;333.00;1920.00
57030;DHT22;42920;45.306;20.448;2023-12-22T11:48:11;332.90;1945.60
57030;DHT22;42920;45.306;20.448;2023-12-22T11:50:37;333.10;1971.20
57030;DHT22;42920;45.306;20.448;2023-12-22T11:53:25;333.30;1945.60
57030;DHT22;42920;45.306;20.448;2023-12-22T12:01:12;332.90;1996.80
57030;DHT22;42920;45.306;20.448;2023-12-22T12:04:03;332.90;2048.00
57030;DHT22;42920;45.306;20.448;2023-12-22T12:08:55;308.10;2073.60
57030;DHT22;42920;45.306;20.448;2023-12-22T12:11:22;307.90;2176.00
57030;DHT22;42920;45.306;20.448;2023-12-22T12:13:49;308.00;2201.60
57030;DHT22;42920;45.306;20.448;2023-12-22T12:16:19;308.00;2201.60
57030;DHT22;42920;45.306;20.448;2023-12-22T12:18:47;308.00;2201.60
57030;DHT22;42920;45.306;20.448;2023-12-22T12:21:13;307.80;2022.40
57030;DHT22;42920;45.306;20.448;2023-12-22T12:23:41;307.80;2022.40
57030;DHT22;42920;45.306;20.448;2023-12-22T12:26:11;307.70;2022.40
57030;DHT22;42920;45.306;20.448;2023-12-22T12:28:38;307.80;2073.60
57030;DHT22;42920;45.306;20.448;2023-12-22T12:31:08;307.70;2099.20
57030;DHT22;42920;45.306;20.448;2023-12-22T12:33:35;307.60;2022.40
57030;DHT22;42920;45.306;20.448;2023-12-22T12:36:02;307.60;2048.00
57030;DHT22;42920;45.306;20.448;2023-12-22T12:39:24;307.60;2073.60
57030;DHT22;42920;45.306;20.448;2023-12-22T12:41:43;307.40;2150.40
57030;DHT22;42920;45.306;20.448;2023-12-22T12:44:10;307.40;2124.80
57030;DHT22;42920;45.306;20.448;2023-12-22T12:46:37;307.30;2073.60
57030;DHT22;42920;45.306;20.448;2023-12-22T12:49:09;307.20;2099.20
57030;DHT22;42920;45.306;20.448;2023-12-22T12:51:46;282.50;2099.20
57030;DHT22;42920;45.306;20.448;2023-12-22T12:54:13;282.40;2048.00
57030;DHT22;42920;45.306;20.448;2023-12-22T12:56:44;282.20;2124.80
57030;DHT22;42920;45.306;20.448;2023-12-22T12:59:19;282.20;2150.40
57030;DHT22;42920;45.306;20.448;2023-12-22T13:01:47;282.10;2176.00
57030;DHT22;42920;45.306;20.448;2023-12-22T13:04:14;282.00;2150.40
57030;DHT22;42920;45.306;20.448;2023-12-22T13:06:49;282.00;2176.00
57030;DHT22;42920;45.306;20.448;2023-12-22T13:09:16;282.00;2201.60
57030;DHT22;42920;45.306;20.448;2023-12-22T13:11:43;282.00;2227.20
57030;DHT22;42920;45.306;20.448;2023-12-22T13:14:09;282.00;2227.20
57030;DHT22;42920;45.306;20.448;2023-12-22T13:16:35;281.80;2252.80
57030;DHT22;42920;45.306;20.448;2023-12-22T13:19:02;281.80;2278.40
57030;DHT22;42920;45.306;20.448;2023-12-22T13:21:28;281.80;2278.40
57030;DHT22;42920;45.306;20.448;2023-12-22T13:24:16;281.80;2278.40
57030;DHT22;42920;45.306;20.448;2023-12-22T13:26:43;281.80;2278.40
57030;DHT22;42920;45.306;20.448;2023-12-22T13:29:10;281.70;2278.40
57030;DHT22;42920;45.306;20.448;2023-12-22T13:31:40;282.30;2278.40
57030;DHT22;42920;45.306;20.448;2023-12-22T13:34:11;281.70;2278.40
57030;DHT22;42920;45.306;20.448;2023-12-22T13:36:37;281.60;2278.40
57030;DHT22;42920;45.306;20.448;2023-12-22T13:39:05;281.70;2252.80
57030;DHT22;42920;45.306;20.448;2023-12-22T13:41:42;256.80;2227.20
57030;DHT22;42920;45.306;20.448;2023-12-22T13:44:11;281.60;2252.80
57030;DHT22;42920;45.306;20.448;2023-12-22T13:46:37;281.60;2227.20
57030;DHT22;42920;45.306;20.448;2023-12-22T13:49:10;256.90;2252.80
57030;DHT22;42920;45.306;20.448;2023-12-22T13:51:46;256.90;2201.60
57030;DHT22;42920;45.306;20.448;2023-12-22T13:54:14;256.80;2227.20
57030;DHT22;42920;45.306;20.448;2023-12-22T13:56:40;256.80;2252.80
57030;DHT22;42920;45.306;20.448;2023-12-22T13:59:07;256.80;2252.80
57030;DHT22;42920;45.306;20.448;2023-12-22T14:01:33;256.70;2252.80
57030;DHT22;42920;45.306;20.448;2023-12-22T14:04:00;256.70;2252.80
57030;DHT22;42920;45.306;20.448;2023-12-22T14:06:26;256.70;2252.80
57030;DHT22;42920;45.306;20.448;2023-12-22T14:08:53;256.80;2252.80
57030;DHT22;42920;45.306;20.448;2023-12-22T14:11:19;281.70;2278.40
57030;DHT22;42920;45.306;20.448;2023-12-22T14:13:47;256.80;2252.80
57030;DHT22;42920;45.306;20.448;2023-12-22T14:16:13;256.70;2252.80
57030;DHT22;42920;45.306;20.448;2023-12-22T14:18:41;256.70;2252.80
57030;DHT22;42920;45.306;20.448;2023-12-22T14:21:07;256.70;2252.80
57030;DHT22;42920;45.306;20.448;2023-12-22T14:23:32;256.70;2252.80
57030;DHT22;42920;45.306;20.448;2023-12-22T14:25:58;256.60;2252.80
57030;DHT22;42920;45.306;20.448;2023-12-22T14:28:24;256.70;2252.80
57030;DHT22;42920;45.306;20.448;2023-12-22T14:30:49;256.50;2252.80
57030;DHT22;42920;45.306;20.448;2023-12-22T14:33:15;256.50;2252.80
57030;DHT22;42920;45.306;20.448;2023-12-22T14:35:41;256.40;2252.80
57030;DHT22;42920;45.306;20.448;2023-12-22T14:38:07;256.30;2252.80
57030;DHT22;42920;45.306;20.448;2023-12-22T14:40:32;256.20;2252.80
57030;DHT22;42920;45.306;20.448;2023-12-22T14:42:58;256.20;2252.80
57030;DHT22;42920;45.306;20.448;2023-12-22T14:45:25;256.10;2252.80
57030;DHT22;42920;45.306;20.448;2023-12-22T14:47:50;256.00;2252.80
57030;DHT22;42920;45.306;20.448;2023-12-22T14:50:19;256.00;2252.80
57030;DHT22;42920;45.306;20.448;2023-12-22T14:52:44;231.30;2252.80
57030;DHT22;42920;45.306;20.448;2023-12-22T14:55:11;231.30;2252.80
57030;DHT22;42920;45.306;20.448;2023-12-22T14:57:36;231.20;2252.80
57030;DHT22;42920;45.306;20.448;2023-12-22T15:00:06;231.20;2252.80
57030;DHT22;42920;45.306;20.448;2023-12-22T15:02:32;231.20;2252.80
57030;DHT22;42920;45.306;20.448;2023-12-22T15:04:58;231.10;2252.80
57030;DHT22;42920;45.306;20.448;2023-12-22T15:07:23;231.10;2252.80